Pasadena, Texas
Current Conditions -  °F | °C
As of 2:50 AM on Tuesday 21 Oct 2014 (Local Time) from KEFD Reporting Station
Broken Clouds Broken Clouds  
Wind Chill: 66°   Ceiling: 25000
Heat Index: 66°   Visibility: 10mi
Dew Point: 61°   Wind: 5mph
Humidity: 83%   Direction: 40°NE
Pressure: 30.02"   Gusts: NA
Location:  29.69°N, 95.2°W
Report Text: KEFD 210750Z 04004KT 10SM BKN250 19/16 A3002
Loading
Personal Weather Stations






























Interactive Weather Map
Tropical Storm Tracking
New forecast layout! Learn more

10-Day Weather Forecast

Advertisements
Track Severe Weather on mobile